createdAt,value
2018-07-03T00:00:56.852Z,57.83
2018-07-03T00:03:29.733Z,58.48
2018-07-03T00:06:01.764Z,58.58
2018-07-03T00:08:33.459Z,59.07
2018-07-03T00:11:03.090Z,61.00
2018-07-03T00:13:31.696Z,60.57
2018-07-03T00:16:01.633Z,60.19
2018-07-03T00:18:30.839Z,59.59
2018-07-03T00:20:59.428Z,59.44
2018-07-03T00:23:27.973Z,59.55
2018-07-03T00:25:56.509Z,59.47
2018-07-03T00:28:25.025Z,59.74
2018-07-03T00:30:53.968Z,60.02
2018-07-03T00:33:22.469Z,60.83
2018-07-03T00:35:51.026Z,62.38
2018-07-03T00:38:19.544Z,60.38
2018-07-03T00:40:48.093Z,61.29
2018-07-03T00:43:16.619Z,60.76
2018-07-03T00:45:45.169Z,60.73
2018-07-03T00:48:13.680Z,61.28
2018-07-03T00:50:42.225Z,61.40
2018-07-03T00:53:10.732Z,61.52
2018-07-03T00:55:39.505Z,61.14
2018-07-03T00:58:08.041Z,61.83
2018-07-03T01:00:36.824Z,63.02
2018-07-03T01:03:05.675Z,63.13
2018-07-03T01:05:34.675Z,62.95
2018-07-03T01:08:03.249Z,63.28
2018-07-03T01:10:31.820Z,63.91
2018-07-03T01:13:00.409Z,62.92
2018-07-03T01:15:29.205Z,63.22
2018-07-03T01:17:57.760Z,62.43
2018-07-03T01:20:26.283Z,63.01
2018-07-03T01:22:54.842Z,64.16
2018-07-03T01:25:24.089Z,63.15
2018-07-03T01:27:52.632Z,62.58
2018-07-03T01:30:21.160Z,62.87
2018-07-03T01:32:49.709Z,62.78
2018-07-03T01:35:18.410Z,64.33
2018-07-03T01:37:46.939Z,64.17
2018-07-03T01:40:15.464Z,63.67
2018-07-03T01:42:44.004Z,65.03
2018-07-03T01:45:12.872Z,64.90
2018-07-03T01:47:41.466Z,63.10
2018-07-03T01:50:10.000Z,62.00
2018-07-03T01:52:38.559Z,61.84
2018-07-03T01:55:07.121Z,62.03
2018-07-03T01:57:35.676Z,60.64
2018-07-03T02:00:05.140Z,60.42
2018-07-03T02:02:33.724Z,61.66
2018-07-03T02:05:02.312Z,64.87
2018-07-03T02:07:30.886Z,64.15
2018-07-03T02:09:59.428Z,64.76
2018-07-03T02:12:27.991Z,63.16
2018-07-03T02:14:56.524Z,62.35
2018-07-03T02:17:25.104Z,62.07
2018-07-03T02:19:54.392Z,61.60
2018-07-03T02:22:22.961Z,61.86
2018-07-03T02:24:51.503Z,61.84
2018-07-03T02:27:20.075Z,63.61
2018-07-03T02:29:48.616Z,63.39
2018-07-03T02:32:17.197Z,63.69
2018-07-03T02:34:46.022Z,64.66
2018-07-03T02:37:14.596Z,64.84
2018-07-03T02:39:43.202Z,65.12
2018-07-03T02:42:11.782Z,63.62
2018-07-03T02:44:40.317Z,63.71
2018-07-03T02:47:08.909Z,63.78
2018-07-03T02:49:37.446Z,65.38
2018-07-03T02:52:06.046Z,65.76
2018-07-03T02:54:34.580Z,66.31
2018-07-03T02:57:03.165Z,66.07
2018-07-03T02:59:31.733Z,66.78
2018-07-03T03:02:00.337Z,65.10
2018-07-03T03:04:28.965Z,64.87
2018-07-03T03:06:57.504Z,64.74
2018-07-03T03:09:26.092Z,64.46
2018-07-03T03:11:54.628Z,65.98
2018-07-03T03:14:23.190Z,66.35
2018-07-03T03:16:51.737Z,65.75
2018-07-03T03:19:20.328Z,65.57
2018-07-03T03:21:48.864Z,67.19
2018-07-03T03:24:17.464Z,66.23
2018-07-03T03:26:46.040Z,66.24
2018-07-03T03:29:14.648Z,67.22
2018-07-03T03:31:43.206Z,67.60
2018-07-03T03:34:11.772Z,68.72
2018-07-03T03:36:40.308Z,68.30
2018-07-03T03:39:09.424Z,68.06
2018-07-03T03:41:37.985Z,67.39
2018-07-03T03:44:06.585Z,68.79
2018-07-03T03:46:35.132Z,68.40
2018-07-03T03:49:03.716Z,68.23
2018-07-03T03:51:32.288Z,69.22
2018-07-03T03:54:00.876Z,68.78
2018-07-03T03:56:29.464Z,68.96
2018-07-03T03:58:57.998Z,68.96
2018-07-03T04:01:26.734Z,69.29
2018-07-03T04:03:56.214Z,69.30
2018-07-03T04:06:24.874Z,69.04
2018-07-03T04:08:54.296Z,69.22
2018-07-03T04:11:22.892Z,69.10
2018-07-03T04:13:51.773Z,69.02
2018-07-03T04:16:20.433Z,68.98
2018-07-03T04:18:48.973Z,67.98
2018-07-03T04:21:17.548Z,68.43
2018-07-03T04:23:46.092Z,67.34
2018-07-03T04:26:14.668Z,66.54
2018-07-03T04:28:43.208Z,65.71
2018-07-03T04:31:12.289Z,69.19
2018-07-03T04:33:41.169Z,68.49
2018-07-03T04:36:09.804Z,67.58
2018-07-03T04:38:38.344Z,67.25
2018-07-03T04:41:06.955Z,64.90
2018-07-03T04:43:35.497Z,66.88
2018-07-03T04:46:04.054Z,66.99
2018-07-03T04:48:32.627Z,69.26
2018-07-03T04:51:01.172Z,71.01
2018-07-03T04:53:30.099Z,67.92
2018-07-03T04:55:58.636Z,66.87
2018-07-03T04:58:27.262Z,66.42
2018-07-03T05:00:55.832Z,64.74
2018-07-03T05:03:24.981Z,64.86
2018-07-03T05:05:53.601Z,65.84
2018-07-03T05:08:22.288Z,67.82
2018-07-03T05:10:50.995Z,66.28
2018-07-03T05:13:20.851Z,64.50
2018-07-03T05:15:49.457Z,63.90
2018-07-03T05:18:17.997Z,63.79
2018-07-03T05:20:46.580Z,63.86
2018-07-03T05:23:15.129Z,66.57
2018-07-03T05:25:43.716Z,64.26
2018-07-03T05:28:12.288Z,65.02
2018-07-03T05:30:40.853Z,60.58
2018-07-03T05:33:09.398Z,60.16
2018-07-03T05:35:37.969Z,60.49
2018-07-03T05:38:06.575Z,58.53
2018-07-03T05:40:35.174Z,58.72
2018-07-03T05:43:03.736Z,59.59
2018-07-03T05:45:32.308Z,60.75
2018-07-03T05:48:00.836Z,61.10
2018-07-03T05:50:29.410Z,61.91
2018-07-03T05:52:58.044Z,63.26
2018-07-03T05:55:26.636Z,63.24
2018-07-03T05:57:55.156Z,62.01
2018-07-03T06:00:23.716Z,62.40
2018-07-03T06:02:52.242Z,60.40
2018-07-03T06:05:20.789Z,58.96
2018-07-03T06:07:49.313Z,57.25
2018-07-03T06:10:17.896Z,59.13
2018-07-03T06:12:46.577Z,57.49
2018-07-03T06:15:15.329Z,57.19
2018-07-03T06:17:43.856Z,55.43
2018-07-03T06:20:12.429Z,55.76
2018-07-03T06:22:41.063Z,56.06
2018-07-03T06:25:09.631Z,56.58
2018-07-03T06:27:38.160Z,56.14
2018-07-03T06:30:06.984Z,55.72
2018-07-03T06:32:41.892Z,55.38
2018-07-03T06:35:10.460Z,55.08
2018-07-03T06:37:45.171Z,55.46
2018-07-03T06:40:13.972Z,57.05
2018-07-03T06:42:48.934Z,55.75
2018-07-03T06:45:18.236Z,55.03
2018-07-03T06:47:50.396Z,52.22
2018-07-03T06:50:19.513Z,50.51
2018-07-03T06:52:48.141Z,52.29
2018-07-03T06:55:16.853Z,52.53
2018-07-03T06:57:46.690Z,50.94
2018-07-03T07:00:15.295Z,50.84
2018-07-03T07:02:43.845Z,51.35
2018-07-03T07:05:12.757Z,50.26
2018-07-03T07:07:43.748Z,50.59
2018-07-03T07:10:12.278Z,49.57
2018-07-03T07:12:40.833Z,50.43
2018-07-03T07:15:09.771Z,50.35
2018-07-03T07:17:44.903Z,49.14
2018-07-03T07:20:19.471Z,48.15
2018-07-03T07:22:48.288Z,47.84
2018-07-03T07:25:16.812Z,48.59
2018-07-03T07:27:50.665Z,48.45
2018-07-03T07:30:19.341Z,46.74
2018-07-03T07:32:49.671Z,46.13
2018-07-03T07:35:18.503Z,45.08
2018-07-03T07:37:47.285Z,45.02
2018-07-03T07:40:15.864Z,45.83
2018-07-03T07:42:44.875Z,43.20
2018-07-03T07:45:13.471Z,44.04
2018-07-03T07:47:42.387Z,44.12
2018-07-03T07:50:10.900Z,41.61
2018-07-03T07:52:39.694Z,42.13
2018-07-03T07:55:08.268Z,41.56
2018-07-03T07:57:36.820Z,40.86
2018-07-03T08:00:05.881Z,41.08
2018-07-03T08:02:34.458Z,40.67
2018-07-03T08:05:03.521Z,41.52
2018-07-03T08:07:32.092Z,41.05
2018-07-03T08:10:00.657Z,40.73
2018-07-03T08:12:29.938Z,41.34
2018-07-03T08:14:58.460Z,41.51
2018-07-03T08:17:27.036Z,42.39
2018-07-03T08:19:56.163Z,41.47
2018-07-03T08:22:24.860Z,41.52
2018-07-03T08:24:54.534Z,41.86
2018-07-03T08:27:25.573Z,41.02
2018-07-03T08:29:56.261Z,43.29
2018-07-03T08:32:24.935Z,42.77
2018-07-03T08:34:54.678Z,40.95
2018-07-03T08:37:23.261Z,40.79
2018-07-03T08:39:52.756Z,40.63
2018-07-03T08:42:21.347Z,42.31
2018-07-03T08:44:49.968Z,41.96
2018-07-03T08:47:18.520Z,42.18
2018-07-03T08:49:47.570Z,40.35
2018-07-03T08:52:16.154Z,39.61
2018-07-03T08:54:45.944Z,40.77
2018-07-03T08:57:14.497Z,38.31
2018-07-03T08:59:53.025Z,37.60
2018-07-03T09:02:21.805Z,37.10
2018-07-03T09:04:58.829Z,37.26
2018-07-03T09:07:33.276Z,35.99
2018-07-03T09:10:01.973Z,37.00
2018-07-03T09:12:34.805Z,35.97
2018-07-03T09:15:09.827Z,35.32
2018-07-03T09:17:40.352Z,34.83
2018-07-03T09:20:08.931Z,37.75
2018-07-03T09:22:42.354Z,36.29
2018-07-03T09:25:14.574Z,35.24
2018-07-03T09:27:43.356Z,35.89
2018-07-03T09:30:19.482Z,35.55
2018-07-03T09:32:49.450Z,34.57
2018-07-03T09:35:18.251Z,34.74
2018-07-03T09:37:51.112Z,35.72
2018-07-03T09:40:20.169Z,36.15
2018-07-03T09:42:55.180Z,33.70
2018-07-03T09:45:24.729Z,33.83
2018-07-03T09:47:54.536Z,34.63
2018-07-03T09:50:24.702Z,33.68
2018-07-03T09:52:54.169Z,34.91
2018-07-03T09:55:24.341Z,34.92
2018-07-03T09:57:54.925Z,32.88
2018-07-03T10:00:28.996Z,35.24
2018-07-03T10:02:58.293Z,35.36
2018-07-03T10:05:26.837Z,34.17
2018-07-03T10:07:55.773Z,34.21
2018-07-03T10:10:27.575Z,32.92
2018-07-03T10:12:57.289Z,32.43
2018-07-03T10:15:26.813Z,32.38
2018-07-03T10:17:56.808Z,30.81
2018-07-03T10:20:25.359Z,31.58
2018-07-03T10:22:53.988Z,31.19
2018-07-03T10:25:22.546Z,32.02
2018-07-03T10:27:58.915Z,31.58
2018-07-03T10:30:27.660Z,30.46
2018-07-03T10:32:56.617Z,32.03
2018-07-03T10:35:25.194Z,30.07
2018-07-03T10:37:53.741Z,32.81
2018-07-03T10:40:22.320Z,33.22
2018-07-03T10:42:50.874Z,34.46
2018-07-03T10:45:19.446Z,33.84
2018-07-03T10:47:47.986Z,34.62
2018-07-03T10:50:19.215Z,34.53
2018-07-03T10:52:47.833Z,36.05
2018-07-03T10:55:16.452Z,33.51
2018-07-03T10:57:44.976Z,32.48
2018-07-03T11:00:15.578Z,32.83
2018-07-03T11:02:44.203Z,38.43
2018-07-03T11:05:12.770Z,37.92
2018-07-03T11:07:41.302Z,34.12
2018-07-03T11:10:10.163Z,32.94
2018-07-03T11:12:38.731Z,33.91
2018-07-03T11:15:07.292Z,36.80
2018-07-03T11:17:37.355Z,34.67
2018-07-03T11:20:06.382Z,37.14
2018-07-03T11:22:34.924Z,37.86
2018-07-03T11:25:03.748Z,36.79
2018-07-03T11:27:36.683Z,35.27
2018-07-03T11:30:05.957Z,38.64
2018-07-03T11:32:34.469Z,36.46
2018-07-03T11:35:06.873Z,36.59
2018-07-03T11:37:35.624Z,34.24
2018-07-03T11:40:06.713Z,35.08
2018-07-03T11:42:35.233Z,32.94
2018-07-03T11:45:05.649Z,35.37
2018-07-03T11:47:39.329Z,34.30
2018-07-03T11:50:10.957Z,35.82
2018-07-03T11:52:39.893Z,35.48
2018-07-03T11:55:13.914Z,37.46
2018-07-03T11:57:43.404Z,38.42
2018-07-03T12:00:13.532Z,37.69
2018-07-03T12:02:45.820Z,34.69
2018-07-03T12:05:18.958Z,32.20
2018-07-03T12:07:48.104Z,33.50
2018-07-03T12:10:18.860Z,34.56
2018-07-03T12:12:49.418Z,31.32
2018-07-03T12:15:19.179Z,29.12
2018-07-03T12:17:48.959Z,28.80
2018-07-03T12:20:19.065Z,31.05
2018-07-03T12:22:48.120Z,30.78
2018-07-03T12:25:18.369Z,29.51
2018-07-03T12:27:54.171Z,30.70
2018-07-03T12:30:28.017Z,30.20
2018-07-03T12:32:57.090Z,28.36
2018-07-03T12:35:25.706Z,26.98
2018-07-03T12:37:54.252Z,27.71
2018-07-03T12:40:22.826Z,27.50
2018-07-03T12:42:51.453Z,26.99
2018-07-03T12:45:25.783Z,26.32
2018-07-03T12:47:54.400Z,26.10
2018-07-03T12:50:22.990Z,28.04
2018-07-03T12:52:57.126Z,27.45
2018-07-03T12:55:32.759Z,25.88
2018-07-03T12:58:04.074Z,27.64
2018-07-03T13:00:36.770Z,27.31
2018-07-03T13:03:05.422Z,27.36
2018-07-03T13:05:33.997Z,26.13
2018-07-03T13:08:09.805Z,27.08
2018-07-03T13:10:40.941Z,26.08
2018-07-03T13:13:09.697Z,26.55
2018-07-03T13:15:45.423Z,26.82
2018-07-03T13:18:23.200Z,27.02
2018-07-03T13:20:53.265Z,28.38
2018-07-03T13:23:28.338Z,26.70
2018-07-03T13:26:02.367Z,29.09
2018-07-03T13:28:31.085Z,26.73
2018-07-03T13:31:03.268Z,26.98
2018-07-03T13:33:36.979Z,25.35
2018-07-03T13:36:05.842Z,25.92
2018-07-03T13:38:34.456Z,25.69
2018-07-03T13:41:07.826Z,26.27
2018-07-03T13:43:36.712Z,25.80
2018-07-03T13:46:05.317Z,25.53
2018-07-03T13:48:39.385Z,26.55
2018-07-03T13:51:08.156Z,24.65
2018-07-03T13:53:36.780Z,25.50
2018-07-03T13:56:10.550Z,26.46
2018-07-03T13:58:39.264Z,25.35
2018-07-03T14:01:13.513Z,26.08
2018-07-03T14:03:42.282Z,27.91
2018-07-03T14:06:10.833Z,25.20
2018-07-03T14:08:39.372Z,23.39
2018-07-03T14:11:09.253Z,23.82
2018-07-03T14:13:40.496Z,24.10
2018-07-03T14:16:10.503Z,26.18
2018-07-03T14:18:39.036Z,23.92
2018-07-03T14:21:08.373Z,22.76
2018-07-03T14:23:36.932Z,22.98
2018-07-03T14:26:05.883Z,24.67
2018-07-03T14:28:35.749Z,23.88
2018-07-03T14:31:04.393Z,24.26
2018-07-03T14:33:32.928Z,25.95
2018-07-03T14:36:02.529Z,24.22
2018-07-03T14:38:31.673Z,26.68
2018-07-03T14:41:01.002Z,22.66
2018-07-03T14:43:29.649Z,22.89
2018-07-03T14:45:58.229Z,23.44
2018-07-03T14:48:26.790Z,25.20
2018-07-03T14:50:55.648Z,24.89
2018-07-03T14:53:24.247Z,24.39
2018-07-03T14:55:52.792Z,23.13
2018-07-03T14:58:21.401Z,23.94
2018-07-03T15:00:50.272Z,25.41
2018-07-03T15:03:18.861Z,25.47
2018-07-03T15:05:47.442Z,24.96
2018-07-03T15:08:16.499Z,24.11
2018-07-03T15:10:45.098Z,23.64
2018-07-03T15:13:15.292Z,24.17
2018-07-03T15:15:43.920Z,24.42
2018-07-03T15:18:13.525Z,23.62
2018-07-03T15:20:42.085Z,26.01
2018-07-03T15:23:10.665Z,23.42
2018-07-03T15:25:39.205Z,26.33
2018-07-03T15:28:07.860Z,25.90
2018-07-03T15:30:36.733Z,26.96
2018-07-03T15:33:05.406Z,26.95
2018-07-03T15:35:33.936Z,25.15
2018-07-03T15:38:02.508Z,26.47
2018-07-03T15:40:31.039Z,25.21
2018-07-03T15:42:59.608Z,24.79
2018-07-03T15:45:28.264Z,25.51
2018-07-03T15:47:56.840Z,23.67
2018-07-03T15:50:25.373Z,24.67
2018-07-03T15:52:54.216Z,26.93
2018-07-03T15:55:22.822Z,30.44
2018-07-03T15:57:51.412Z,26.43
2018-07-03T16:00:20.271Z,24.67
2018-07-03T16:04:12.819Z,24.86
2018-07-03T16:07:21.965Z,25.45
2018-07-03T16:09:50.584Z,24.60
2018-07-03T16:12:19.134Z,25.71
2018-07-03T16:14:47.733Z,26.06
2018-07-03T16:17:16.287Z,24.14
2018-07-03T16:19:50.242Z,24.16
2018-07-03T16:22:18.798Z,24.81
2018-07-03T16:24:47.467Z,24.89
2018-07-03T16:27:20.695Z,26.04
2018-07-03T16:29:49.272Z,26.29
2018-07-03T16:32:17.852Z,27.14
2018-07-03T16:34:46.431Z,24.24
2018-07-03T16:37:15.203Z,25.51
2018-07-03T16:39:43.780Z,23.25
2018-07-03T16:42:12.321Z,23.06
2018-07-03T16:44:40.900Z,23.73
2018-07-03T16:47:10.689Z,23.01
2018-07-03T16:49:39.272Z,20.91
2018-07-03T16:52:07.886Z,20.59
2018-07-03T16:54:36.589Z,18.05
2018-07-03T16:57:05.165Z,18.05
2018-07-03T16:59:33.721Z,17.44
2018-07-03T17:02:02.245Z,18.09
2018-07-03T17:04:30.824Z,19.00
2018-07-03T17:06:59.400Z,19.86
2018-07-03T17:09:28.638Z,20.00
2018-07-03T17:11:57.157Z,21.06
2018-07-03T17:14:30.053Z,18.79
2018-07-03T17:17:00.770Z,18.86
2018-07-03T17:19:39.073Z,19.86
2018-07-03T17:22:09.481Z,19.36
2018-07-03T17:24:41.944Z,19.69
2018-07-03T17:27:13.310Z,20.23
2018-07-03T17:29:47.578Z,20.12
2018-07-03T17:32:19.863Z,19.19
2018-07-03T17:34:48.520Z,22.76
2018-07-03T17:37:20.999Z,19.39
2018-07-03T17:40:02.758Z,17.07
2018-07-03T17:42:43.373Z,18.61
2018-07-03T17:45:49.875Z,17.41
2018-07-03T17:48:18.455Z,16.40
2018-07-03T17:50:49.896Z,18.52
2018-07-03T17:53:18.700Z,18.88
2018-07-03T17:55:47.273Z,15.84
2018-07-03T17:58:15.950Z,17.95
2018-07-03T18:00:44.520Z,19.80
2018-07-03T18:03:13.155Z,22.68
2018-07-03T18:05:41.681Z,21.25
2018-07-03T18:08:11.800Z,24.67
2018-07-03T18:10:40.759Z,23.84
2018-07-03T18:13:09.924Z,26.23
2018-07-03T18:15:39.147Z,27.08
2018-07-03T18:18:08.346Z,28.57
2018-07-03T18:20:42.232Z,30.19
2018-07-03T18:23:11.188Z,31.35
2018-07-03T18:25:40.376Z,31.99
2018-07-03T18:28:10.225Z,32.53
2018-07-03T18:30:39.323Z,34.50
2018-07-03T18:33:08.385Z,35.89
2018-07-03T18:35:37.344Z,35.66
2018-07-03T18:38:06.689Z,36.01
2018-07-03T18:40:35.838Z,36.43
2018-07-03T18:43:05.074Z,39.78
2018-07-03T18:45:34.264Z,40.69
2018-07-03T18:48:03.268Z,40.83
2018-07-03T18:50:32.461Z,43.49
2018-07-03T18:53:01.665Z,41.77
2018-07-03T18:55:31.000Z,42.16
2018-07-03T18:58:00.032Z,42.76
2018-07-03T19:00:29.673Z,43.88
2018-07-03T19:02:59.525Z,43.50
2018-07-03T19:05:29.504Z,44.33
2018-07-03T19:07:59.327Z,44.41
2018-07-03T19:10:28.564Z,45.04
2018-07-03T19:12:57.656Z,45.39
2018-07-03T19:15:26.729Z,45.50
2018-07-03T19:17:55.820Z,45.50
2018-07-03T19:20:25.177Z,46.15
2018-07-03T19:22:54.344Z,45.12
2018-07-03T19:25:23.337Z,45.13
2018-07-03T19:27:52.620Z,47.28
2018-07-03T19:30:21.512Z,50.23
2018-07-03T19:32:50.625Z,50.67
2018-07-03T19:35:19.753Z,49.90
2018-07-03T19:37:48.907Z,49.74
2018-07-03T19:40:18.258Z,49.57
2018-07-03T19:42:58.584Z,51.06
2018-07-03T19:45:27.705Z,51.37
2018-07-03T19:47:56.925Z,50.24
2018-07-03T19:50:27.917Z,49.52
2018-07-03T19:52:55.207Z,50.83
2018-07-03T19:55:24.301Z,51.36
2018-07-03T19:57:53.746Z,51.33
2018-07-03T20:00:22.952Z,51.95
2018-07-03T20:02:51.786Z,51.13
2018-07-03T20:05:21.117Z,51.57
2018-07-03T20:07:50.044Z,52.88
2018-07-03T20:10:19.193Z,52.05
2018-07-03T20:12:48.324Z,52.73
2018-07-03T20:15:23.972Z,52.73
2018-07-03T20:17:55.819Z,52.77
2018-07-03T20:20:26.769Z,55.79
2018-07-03T20:22:57.875Z,55.15
2018-07-03T20:25:27.021Z,57.28
2018-07-03T20:27:58.678Z,58.06
2018-07-03T20:30:28.705Z,57.15
2018-07-03T20:32:58.078Z,55.79
2018-07-03T20:35:29.483Z,55.17
2018-07-03T20:38:04.135Z,55.90
2018-07-03T20:40:51.389Z,57.02
2018-07-03T20:43:22.787Z,58.48
2018-07-03T20:45:52.441Z,59.63
2018-07-03T20:48:21.769Z,61.78
2018-07-03T20:50:51.149Z,61.77
2018-07-03T20:53:20.802Z,60.09
2018-07-03T20:55:49.540Z,59.23
2018-07-03T20:58:23.192Z,59.46
2018-07-03T21:00:57.782Z,60.19
2018-07-03T21:03:26.652Z,60.68
2018-07-03T21:05:57.981Z,60.54
2018-07-03T21:08:29.296Z,59.07
2018-07-03T21:11:01.224Z,59.01
2018-07-03T21:13:37.946Z,60.14
2018-07-03T21:16:06.712Z,60.21
2018-07-03T21:18:35.273Z,60.01
2018-07-03T21:21:06.237Z,59.36
2018-07-03T21:23:34.861Z,61.07
2018-07-03T21:26:03.405Z,62.01
2018-07-03T21:28:31.991Z,63.73
2018-07-03T21:31:00.525Z,63.92
2018-07-03T21:33:29.653Z,64.50
2018-07-03T21:35:58.195Z,63.72
2018-07-03T21:38:26.802Z,62.95
2018-07-03T21:40:55.322Z,64.07
2018-07-03T21:43:23.893Z,64.05
2018-07-03T21:45:52.427Z,63.44
2018-07-03T21:48:21.264Z,63.67
2018-07-03T21:50:49.808Z,63.63
2018-07-03T21:53:18.408Z,64.65
2018-07-03T21:55:46.948Z,67.06
2018-07-03T21:58:15.507Z,64.54
2018-07-03T22:00:44.505Z,63.08
2018-07-03T22:03:13.102Z,63.96
2018-07-03T22:05:42.045Z,64.99
2018-07-03T22:08:10.633Z,64.34
2018-07-03T22:10:39.184Z,65.17
2018-07-03T22:13:07.765Z,66.63
2018-07-03T22:15:36.836Z,66.64
2018-07-03T22:18:05.845Z,66.88
2018-07-03T22:20:34.386Z,67.70
2018-07-03T22:23:02.988Z,67.57
2018-07-03T22:25:31.549Z,67.56
2018-07-03T22:28:00.122Z,68.14
2018-07-03T22:30:29.268Z,66.05
2018-07-03T22:32:57.862Z,67.96
2018-07-03T22:35:26.448Z,66.06
2018-07-03T22:37:54.983Z,65.89
2018-07-03T22:40:23.633Z,66.62
2018-07-03T22:42:52.281Z,65.77
2018-07-03T22:45:20.850Z,67.16
2018-07-03T22:47:49.372Z,69.10
2018-07-03T22:50:17.957Z,68.95
2018-07-03T22:52:46.514Z,68.81
2018-07-03T22:55:15.127Z,67.89
2018-07-03T22:57:43.672Z,67.32
2018-07-03T23:00:12.293Z,67.99
2018-07-03T23:02:40.865Z,67.45
2018-07-03T23:05:09.433Z,67.56
2018-07-03T23:07:37.975Z,67.58
2018-07-03T23:10:06.604Z,68.09
2018-07-03T23:12:35.160Z,67.47
2018-07-03T23:15:03.721Z,66.83
2018-07-03T23:17:32.273Z,67.46
2018-07-03T23:20:00.841Z,68.97
2018-07-03T23:22:30.053Z,69.89
2018-07-03T23:24:58.608Z,68.41
2018-07-03T23:27:27.149Z,69.02
2018-07-03T23:29:55.726Z,68.47
2018-07-03T23:32:24.309Z,69.84
2018-07-03T23:34:52.883Z,70.70
2018-07-03T23:37:21.449Z,68.70
2018-07-03T23:39:50.029Z,68.54
2018-07-03T23:42:18.581Z,68.59
2018-07-03T23:44:47.157Z,68.55
2018-07-03T23:47:26.895Z,69.30
2018-07-03T23:50:06.557Z,69.24
2018-07-03T23:52:46.341Z,69.72
2018-07-03T23:55:26.092Z,71.38
2018-07-03T23:58:05.848Z,70.40
